sensor_id;sensor_type;location;lat;lon;timestamp;pressure;altitude;pressure_sealevel;temperature;humidity
47742;BME280;33504;52.066;6.096;2023-04-24T00:01:02;99792.88;;;10.68;55.11
47742;BME280;33504;52.066;6.096;2023-04-24T00:03:29;99804.22;;;10.42;54.55
47742;BME280;33504;52.066;6.096;2023-04-24T00:05:56;99801.63;;;10.74;54.99
47742;BME280;33504;52.066;6.096;2023-04-24T00:08:23;99801.62;;;10.43;54.68
47742;BME280;33504;52.066;6.096;2023-04-24T00:10:50;99797.35;;;10.72;54.52
47742;BME280;33504;52.066;6.096;2023-04-24T00:13:17;99800.78;;;10.10;55.35
47742;BME280;33504;52.066;6.096;2023-04-24T00:15:44;99818.55;;;10.32;55.42
47742;BME280;33504;52.066;6.096;2023-04-24T00:18:11;99801.49;;;10.90;54.91
47742;BME280;33504;52.066;6.096;2023-04-24T00:20:38;99809.16;;;10.67;54.44
47742;BME280;33504;52.066;6.096;2023-04-24T00:23:05;99806.73;;;10.86;53.87
47742;BME280;33504;52.066;6.096;2023-04-24T00:25:32;99808.25;;;11.06;54.08
47742;BME280;33504;52.066;6.096;2023-04-24T00:27:59;99805.53;;;10.26;54.94
47742;BME280;33504;52.066;6.096;2023-04-24T00:30:26;99814.71;;;10.60;54.28
47742;BME280;33504;52.066;6.096;2023-04-24T00:32:53;99807.74;;;10.90;53.79
47742;BME280;33504;52.066;6.096;2023-04-24T00:35:20;99811.76;;;11.21;53.87
47742;BME280;33504;52.066;6.096;2023-04-24T00:37:46;99814.31;;;11.18;53.57
47742;BME280;33504;52.066;6.096;2023-04-24T00:40:13;99820.37;;;10.88;53.88
47742;BME280;33504;52.066;6.096;2023-04-24T00:42:41;99818.58;;;11.08;54.20
47742;BME280;33504;52.066;6.096;2023-04-24T00:45:09;99816.09;;;10.74;53.69
47742;BME280;33504;52.066;6.096;2023-04-24T00:47:36;99821.25;;;10.86;54.10
47742;BME280;33504;52.066;6.096;2023-04-24T00:50:03;99824.99;;;10.10;55.03
47742;BME280;33504;52.066;6.096;2023-04-24T00:52:30;99817.83;;;10.50;54.56
47742;BME280;33504;52.066;6.096;2023-04-24T00:54:57;99814.15;;;10.87;53.66
47742;BME280;33504;52.066;6.096;2023-04-24T00:57:24;99819.49;;;10.68;54.35
47742;BME280;33504;52.066;6.096;2023-04-24T00:59:51;99817.54;;;10.57;54.47
47742;BME280;33504;52.066;6.096;2023-04-24T01:02:19;99823.31;;;10.97;53.63
47742;BME280;33504;52.066;6.096;2023-04-24T01:04:47;99818.68;;;10.32;54.71
47742;BME280;33504;52.066;6.096;2023-04-24T01:07:15;99824.01;;;10.68;54.20
47742;BME280;33504;52.066;6.096;2023-04-24T01:09:44;99827.21;;;10.79;55.23
47742;BME280;33504;52.066;6.096;2023-04-24T01:12:12;99828.84;;;10.79;55.56
47742;BME280;33504;52.066;6.096;2023-04-24T01:14:39;99830.15;;;10.28;55.72
47742;BME280;33504;52.066;6.096;2023-04-24T01:17:06;99824.63;;;10.80;54.37
47742;BME280;33504;52.066;6.096;2023-04-24T01:19:32;99820.15;;;11.05;54.35
47742;BME280;33504;52.066;6.096;2023-04-24T01:22:01;99825.09;;;11.13;54.31
47742;BME280;33504;52.066;6.096;2023-04-24T01:24:29;99825.60;;;10.89;54.85
47742;BME280;33504;52.066;6.096;2023-04-24T01:26:56;99821.64;;;10.24;55.41
47742;BME280;33504;52.066;6.096;2023-04-24T01:29:23;99820.40;;;10.92;54.83
47742;BME280;33504;52.066;6.096;2023-04-24T01:31:51;99823.61;;;10.61;54.67
47742;BME280;33504;52.066;6.096;2023-04-24T01:34:18;99814.06;;;10.47;55.52
47742;BME280;33504;52.066;6.096;2023-04-24T01:36:46;99818.16;;;10.87;55.28
47742;BME280;33504;52.066;6.096;2023-04-24T01:39:14;99815.34;;;10.81;54.45
47742;BME280;33504;52.066;6.096;2023-04-24T01:41:40;99817.06;;;10.77;54.26
47742;BME280;33504;52.066;6.096;2023-04-24T01:44:08;99816.96;;;10.89;54.26
47742;BME280;33504;52.066;6.096;2023-04-24T01:46:35;99823.06;;;10.87;54.31
47742;BME280;33504;52.066;6.096;2023-04-24T01:49:02;99817.10;;;11.74;53.38
47742;BME280;33504;52.066;6.096;2023-04-24T01:51:29;99823.52;;;11.12;53.64
47742;BME280;33504;52.066;6.096;2023-04-24T01:53:56;99823.01;;;10.86;54.32
47742;BME280;33504;52.066;6.096;2023-04-24T01:56:23;99825.77;;;10.87;54.28
47742;BME280;33504;52.066;6.096;2023-04-24T01:58:52;99824.57;;;10.66;54.63
47742;BME280;33504;52.066;6.096;2023-04-24T02:01:20;99822.01;;;10.75;54.43
47742;BME280;33504;52.066;6.096;2023-04-24T02:03:48;99824.51;;;10.77;54.12
47742;BME280;33504;52.066;6.096;2023-04-24T02:06:15;99835.14;;;10.86;54.50
47742;BME280;33504;52.066;6.096;2023-04-24T02:08:42;99824.46;;;10.16;55.34
47742;BME280;33504;52.066;6.096;2023-04-24T02:11:09;99826.73;;;10.69;54.61
47742;BME280;33504;52.066;6.096;2023-04-24T02:13:36;99826.53;;;11.17;54.26
47742;BME280;33504;52.066;6.096;2023-04-24T02:16:03;99823.15;;;11.33;53.97
47742;BME280;33504;52.066;6.096;2023-04-24T02:18:29;99821.25;;;10.79;53.80
47742;BME280;33504;52.066;6.096;2023-04-24T02:20:56;99820.12;;;11.17;53.82
47742;BME280;33504;52.066;6.096;2023-04-24T02:23:23;99823.52;;;10.78;54.05
47742;BME280;33504;52.066;6.096;2023-04-24T02:25:51;99822.18;;;10.85;54.57
47742;BME280;33504;52.066;6.096;2023-04-24T02:28:17;99823.59;;;10.94;54.48
47742;BME280;33504;52.066;6.096;2023-04-24T02:30:45;99820.00;;;11.10;54.38
47742;BME280;33504;52.066;6.096;2023-04-24T02:33:12;99826.74;;;11.56;54.17
47742;BME280;33504;52.066;6.096;2023-04-24T02:35:39;99824.01;;;11.01;54.25
47742;BME280;33504;52.066;6.096;2023-04-24T02:38:06;99823.56;;;11.31;54.36
47742;BME280;33504;52.066;6.096;2023-04-24T02:40:33;99823.01;;;11.28;53.78
47742;BME280;33504;52.066;6.096;2023-04-24T02:43:00;99824.63;;;11.58;53.54
47742;BME280;33504;52.066;6.096;2023-04-24T02:45:26;99824.03;;;11.36;53.68
47742;BME280;33504;52.066;6.096;2023-04-24T02:47:54;99818.94;;;11.78;53.37
47742;BME280;33504;52.066;6.096;2023-04-24T02:50:21;99824.89;;;11.50;53.80
47742;BME280;33504;52.066;6.096;2023-04-24T02:52:48;99821.01;;;11.27;53.75
47742;BME280;33504;52.066;6.096;2023-04-24T02:55:15;99815.99;;;10.46;55.12
47742;BME280;33504;52.066;6.096;2023-04-24T02:57:42;99812.23;;;10.26;56.73
47742;BME280;33504;52.066;6.096;2023-04-24T03:00:10;99811.72;;;10.33;55.87
47742;BME280;33504;52.066;6.096;2023-04-24T03:02:37;99821.31;;;10.43;56.23
47742;BME280;33504;52.066;6.096;2023-04-24T03:05:05;99817.39;;;10.57;56.29
47742;BME280;33504;52.066;6.096;2023-04-24T03:07:32;99813.53;;;10.06;56.25
47742;BME280;33504;52.066;6.096;2023-04-24T03:10:00;99814.62;;;10.34;56.47
47742;BME280;33504;52.066;6.096;2023-04-24T03:12:27;99825.23;;;11.06;55.13
47742;BME280;33504;52.066;6.096;2023-04-24T03:14:54;99825.09;;;11.14;54.57
47742;BME280;33504;52.066;6.096;2023-04-24T03:17:21;99830.77;;;10.61;55.25
47742;BME280;33504;52.066;6.096;2023-04-24T03:19:48;99829.59;;;10.77;54.88
47742;BME280;33504;52.066;6.096;2023-04-24T03:22:15;99831.58;;;10.69;55.20
47742;BME280;33504;52.066;6.096;2023-04-24T03:24:42;99827.81;;;10.32;56.00
47742;BME280;33504;52.066;6.096;2023-04-24T03:27:09;99831.06;;;10.65;55.76
47742;BME280;33504;52.066;6.096;2023-04-24T03:29:36;99831.89;;;10.57;56.00
47742;BME280;33504;52.066;6.096;2023-04-24T03:32:03;99833.84;;;10.55;55.17
47742;BME280;33504;52.066;6.096;2023-04-24T03:34:31;99835.42;;;10.38;55.38
47742;BME280;33504;52.066;6.096;2023-04-24T03:36:58;99835.15;;;10.92;54.21
47742;BME280;33504;52.066;6.096;2023-04-24T03:39:25;99840.38;;;11.10;53.91
47742;BME280;33504;52.066;6.096;2023-04-24T03:41:52;99841.26;;;11.10;54.03
47742;BME280;33504;52.066;6.096;2023-04-24T03:44:19;99842.67;;;11.31;53.61
47742;BME280;33504;52.066;6.096;2023-04-24T03:46:46;99843.18;;;11.10;53.78
47742;BME280;33504;52.066;6.096;2023-04-24T03:49:13;99841.52;;;10.71;54.65
47742;BME280;33504;52.066;6.096;2023-04-24T03:51:40;99845.65;;;11.14;54.15
47742;BME280;33504;52.066;6.096;2023-04-24T03:54:07;99847.09;;;11.19;54.46
47742;BME280;33504;52.066;6.096;2023-04-24T03:56:33;99845.08;;;10.54;54.92
47742;BME280;33504;52.066;6.096;2023-04-24T03:59:00;99849.26;;;10.73;54.83
47742;BME280;33504;52.066;6.096;2023-04-24T04:01:28;99849.17;;;10.60;55.60
47742;BME280;33504;52.066;6.096;2023-04-24T04:03:55;99847.82;;;10.15;55.74
47742;BME280;33504;52.066;6.096;2023-04-24T04:06:22;99857.04;;;10.38;55.75
47742;BME280;33504;52.066;6.096;2023-04-24T04:08:49;99856.05;;;10.55;55.51
47742;BME280;33504;52.066;6.096;2023-04-24T04:11:15;99860.77;;;9.86;56.60
47742;BME280;33504;52.066;6.096;2023-04-24T04:13:42;99855.12;;;10.66;55.55
47742;BME280;33504;52.066;6.096;2023-04-24T04:16:09;99857.71;;;10.27;55.27
47742;BME280;33504;52.066;6.096;2023-04-24T04:18:36;99858.90;;;10.98;54.87
47742;BME280;33504;52.066;6.096;2023-04-24T04:21:03;99857.22;;;10.28;55.16
47742;BME280;33504;52.066;6.096;2023-04-24T04:23:30;99861.84;;;10.62;54.99
47742;BME280;33504;52.066;6.096;2023-04-24T04:25:58;99861.31;;;10.39;54.95
47742;BME280;33504;52.066;6.096;2023-04-24T04:28:25;99861.92;;;10.21;55.53
47742;BME280;33504;52.066;6.096;2023-04-24T04:30:52;99867.12;;;9.90;56.09
47742;BME280;33504;52.066;6.096;2023-04-24T04:33:19;99873.52;;;10.01;56.22
47742;BME280;33504;52.066;6.096;2023-04-24T04:35:46;99864.91;;;9.54;57.08
47742;BME280;33504;52.066;6.096;2023-04-24T04:38:14;99875.76;;;9.85;56.71
47742;BME280;33504;52.066;6.096;2023-04-24T04:40:41;99866.42;;;9.89;56.62
47742;BME280;33504;52.066;6.096;2023-04-24T04:43:08;99867.46;;;10.23;55.86
47742;BME280;33504;52.066;6.096;2023-04-24T04:45:35;99869.90;;;9.76;56.44
47742;BME280;33504;52.066;6.096;2023-04-24T04:48:01;99874.70;;;10.02;55.89
47742;BME280;33504;52.066;6.096;2023-04-24T04:50:29;99873.29;;;10.14;55.76
47742;BME280;33504;52.066;6.096;2023-04-24T04:52:56;99876.55;;;10.02;55.77
47742;BME280;33504;52.066;6.096;2023-04-24T04:55:23;99875.16;;;9.72;56.20
47742;BME280;33504;52.066;6.096;2023-04-24T04:57:50;99881.36;;;10.06;55.61
47742;BME280;33504;52.066;6.096;2023-04-24T05:00:18;99882.04;;;10.11;55.89
47742;BME280;33504;52.066;6.096;2023-04-24T05:02:45;99881.22;;;10.25;56.00
47742;BME280;33504;52.066;6.096;2023-04-24T05:05:12;99884.21;;;10.41;55.22
47742;BME280;33504;52.066;6.096;2023-04-24T05:07:39;99883.49;;;10.52;55.19
47742;BME280;33504;52.066;6.096;2023-04-24T05:10:07;99882.05;;;10.38;55.36
47742;BME280;33504;52.066;6.096;2023-04-24T05:12:34;99883.48;;;10.66;55.15
47742;BME280;33504;52.066;6.096;2023-04-24T05:15:02;99886.71;;;10.33;55.50
47742;BME280;33504;52.066;6.096;2023-04-24T05:17:29;99889.43;;;10.57;54.90
47742;BME280;33504;52.066;6.096;2023-04-24T05:19:56;99891.24;;;10.84;54.68
47742;BME280;33504;52.066;6.096;2023-04-24T05:22:23;99892.62;;;10.54;55.17
47742;BME280;33504;52.066;6.096;2023-04-24T05:24:50;99892.68;;;10.25;55.03
47742;BME280;33504;52.066;6.096;2023-04-24T05:27:17;99897.52;;;10.47;55.03
47742;BME280;33504;52.066;6.096;2023-04-24T05:29:44;99897.61;;;9.85;55.85
47742;BME280;33504;52.066;6.096;2023-04-24T05:32:11;99901.93;;;10.03;55.80
47742;BME280;33504;52.066;6.096;2023-04-24T05:34:38;99902.06;;;10.13;55.87
47742;BME280;33504;52.066;6.096;2023-04-24T05:37:06;99910.21;;;10.50;54.74
47742;BME280;33504;52.066;6.096;2023-04-24T05:39:33;99906.20;;;10.37;55.23
47742;BME280;33504;52.066;6.096;2023-04-24T05:41:59;99913.68;;;10.01;56.39
47742;BME280;33504;52.066;6.096;2023-04-24T05:44:27;99912.22;;;10.28;55.48
47742;BME280;33504;52.066;6.096;2023-04-24T05:46:54;99916.28;;;9.87;56.18
47742;BME280;33504;52.066;6.096;2023-04-24T05:49:21;99918.12;;;10.15;55.90
47742;BME280;33504;52.066;6.096;2023-04-24T05:51:48;99924.33;;;10.10;56.38
47742;BME280;33504;52.066;6.096;2023-04-24T05:54:15;99927.09;;;9.93;56.20
47742;BME280;33504;52.066;6.096;2023-04-24T05:56:43;99933.96;;;10.39;55.48
47742;BME280;33504;52.066;6.096;2023-04-24T05:59:09;99938.42;;;10.87;54.57
47742;BME280;33504;52.066;6.096;2023-04-24T06:01:36;99939.61;;;10.88;54.28
47742;BME280;33504;52.066;6.096;2023-04-24T06:04:04;99939.95;;;10.97;54.05
47742;BME280;33504;52.066;6.096;2023-04-24T06:06:31;99946.72;;;11.00;53.95
47742;BME280;33504;52.066;6.096;2023-04-24T06:08:58;99952.38;;;10.71;53.96
47742;BME280;33504;52.066;6.096;2023-04-24T06:11:25;99956.11;;;10.89;53.60
47742;BME280;33504;52.066;6.096;2023-04-24T06:13:52;99959.05;;;11.27;53.32
47742;BME280;33504;52.066;6.096;2023-04-24T06:16:19;99962.58;;;11.16;52.98
47742;BME280;33504;52.066;6.096;2023-04-24T06:18:47;99965.16;;;11.70;52.86
47742;BME280;33504;52.066;6.096;2023-04-24T06:21:15;99964.14;;;11.31;52.84
47742;BME280;33504;52.066;6.096;2023-04-24T06:23:42;99968.03;;;11.45;52.72
47742;BME280;33504;52.066;6.096;2023-04-24T06:26:09;99968.10;;;11.59;52.58
47742;BME280;33504;52.066;6.096;2023-04-24T06:28:36;99966.52;;;11.24;52.60
47742;BME280;33504;52.066;6.096;2023-04-24T06:31:02;99962.77;;;11.48;52.69
47742;BME280;33504;52.066;6.096;2023-04-24T06:33:30;99967.31;;;11.47;52.62
47742;BME280;33504;52.066;6.096;2023-04-24T06:35:57;99969.52;;;11.55;52.63
47742;BME280;33504;52.066;6.096;2023-04-24T06:38:24;99977.65;;;11.67;52.40
47742;BME280;33504;52.066;6.096;2023-04-24T06:40:52;99985.24;;;11.62;52.60
47742;BME280;33504;52.066;6.096;2023-04-24T06:43:19;99985.73;;;11.44;52.53
47742;BME280;33504;52.066;6.096;2023-04-24T06:45:46;99987.55;;;11.82;52.22
47742;BME280;33504;52.066;6.096;2023-04-24T06:48:13;99988.98;;;11.52;52.36
47742;BME280;33504;52.066;6.096;2023-04-24T06:50:41;99994.37;;;11.71;52.34
47742;BME280;33504;52.066;6.096;2023-04-24T06:53:08;99996.20;;;11.76;52.19
47742;BME280;33504;52.066;6.096;2023-04-24T06:55:35;100001.94;;;11.66;52.33
47742;BME280;33504;52.066;6.096;2023-04-24T06:58:03;100004.60;;;11.73;52.09
47742;BME280;33504;52.066;6.096;2023-04-24T07:00:30;100007.02;;;11.60;52.04
47742;BME280;33504;52.066;6.096;2023-04-24T07:02:57;100007.22;;;11.63;52.22
47742;BME280;33504;52.066;6.096;2023-04-24T07:05:24;100009.08;;;11.57;52.78
47742;BME280;33504;52.066;6.096;2023-04-24T07:07:51;100011.57;;;11.58;52.58
47742;BME280;33504;52.066;6.096;2023-04-24T07:10:18;100015.90;;;11.32;52.98
47742;BME280;33504;52.066;6.096;2023-04-24T07:12:45;100016.15;;;11.40;52.98
47742;BME280;33504;52.066;6.096;2023-04-24T07:15:12;100018.36;;;11.37;53.06
47742;BME280;33504;52.066;6.096;2023-04-24T07:17:39;100021.63;;;11.47;53.26
47742;BME280;33504;52.066;6.096;2023-04-24T07:20:07;100024.05;;;11.51;53.22
47742;BME280;33504;52.066;6.096;2023-04-24T07:22:34;100026.77;;;11.70;52.76
47742;BME280;33504;52.066;6.096;2023-04-24T07:25:01;100031.94;;;11.59;53.10
47742;BME280;33504;52.066;6.096;2023-04-24T07:27:28;100038.03;;;11.14;53.24
47742;BME280;33504;52.066;6.096;2023-04-24T07:29:55;100039.71;;;11.47;52.84
47742;BME280;33504;52.066;6.096;2023-04-24T07:32:21;100047.63;;;11.58;53.02
47742;BME280;33504;52.066;6.096;2023-04-24T07:34:48;100045.74;;;11.35;53.07
47742;BME280;33504;52.066;6.096;2023-04-24T07:37:15;100056.60;;;10.90;53.91
47742;BME280;33504;52.066;6.096;2023-04-24T07:39:42;100063.33;;;11.13;53.57
47742;BME280;33504;52.066;6.096;2023-04-24T07:42:10;100063.68;;;10.99;53.47
47742;BME280;33504;52.066;6.096;2023-04-24T07:44:36;100065.83;;;11.27;53.72
47742;BME280;33504;52.066;6.096;2023-04-24T07:47:03;100077.79;;;10.98;53.90
47742;BME280;33504;52.066;6.096;2023-04-24T07:49:30;100085.20;;;11.06;54.01
47742;BME280;33504;52.066;6.096;2023-04-24T07:51:57;100084.36;;;11.36;53.32
47742;BME280;33504;52.066;6.096;2023-04-24T07:54:24;100091.00;;;11.25;53.55
47742;BME280;33504;52.066;6.096;2023-04-24T07:56:51;100094.98;;;11.18;53.76
47742;BME280;33504;52.066;6.096;2023-04-24T07:59:17;100096.34;;;11.31;53.63
47742;BME280;33504;52.066;6.096;2023-04-24T08:01:44;100104.82;;;10.53;54.89
47742;BME280;33504;52.066;6.096;2023-04-24T08:04:11;100111.91;;;11.04;54.08
47742;BME280;33504;52.066;6.096;2023-04-24T08:06:38;100116.20;;;11.06;53.79
47742;BME280;33504;52.066;6.096;2023-04-24T08:09:05;100124.41;;;10.35;54.52
47742;BME280;33504;52.066;6.096;2023-04-24T08:11:31;100131.12;;;10.48;53.81
47742;BME280;33504;52.066;6.096;2023-04-24T08:13:58;100138.07;;;10.68;54.00
47742;BME280;33504;52.066;6.096;2023-04-24T08:16:25;100145.06;;;10.70;54.12
47742;BME280;33504;52.066;6.096;2023-04-24T08:18:53;100152.25;;;10.73;53.73
47742;BME280;33504;52.066;6.096;2023-04-24T08:21:20;100159.96;;;10.48;53.84
47742;BME280;33504;52.066;6.096;2023-04-24T08:23:46;100165.19;;;10.29;53.87
47742;BME280;33504;52.066;6.096;2023-04-24T08:26:14;100171.45;;;10.55;54.05
47742;BME280;33504;52.066;6.096;2023-04-24T08:28:41;100187.07;;;10.30;53.44
47742;BME280;33504;52.066;6.096;2023-04-24T08:31:09;100190.28;;;10.41;53.81
47742;BME280;33504;52.066;6.096;2023-04-24T08:33:36;100197.31;;;10.34;53.08
47742;BME280;33504;52.066;6.096;2023-04-24T08:36:04;100209.28;;;10.53;53.03
47742;BME280;33504;52.066;6.096;2023-04-24T08:38:32;100211.62;;;10.53;53.30
47742;BME280;33504;52.066;6.096;2023-04-24T08:41:00;100218.49;;;10.49;53.48
47742;BME280;33504;52.066;6.096;2023-04-24T08:43:27;100223.41;;;9.86;53.55
47742;BME280;33504;52.066;6.096;2023-04-24T08:45:56;100231.70;;;10.14;53.53
47742;BME280;33504;52.066;6.096;2023-04-24T08:48:23;100237.67;;;10.42;53.14
47742;BME280;33504;52.066;6.096;2023-04-24T08:50:51;100236.52;;;10.00;54.11
47742;BME280;33504;52.066;6.096;2023-04-24T08:53:18;100242.65;;;10.23;54.15
47742;BME280;33504;52.066;6.096;2023-04-24T08:55:47;100247.89;;;10.22;54.29
47742;BME280;33504;52.066;6.096;2023-04-24T08:58:16;100255.56;;;10.60;53.28
47742;BME280;33504;52.066;6.096;2023-04-24T09:00:43;100260.30;;;10.68;53.42
47742;BME280;33504;52.066;6.096;2023-04-24T09:03:11;100267.43;;;10.86;53.40
47742;BME280;33504;52.066;6.096;2023-04-24T09:05:38;100270.17;;;10.56;52.84
47742;BME280;33504;52.066;6.096;2023-04-24T09:08:06;100271.61;;;10.67;52.64
47742;BME280;33504;52.066;6.096;2023-04-24T09:10:34;100274.95;;;10.61;52.85
47742;BME280;33504;52.066;6.096;2023-04-24T09:13:01;100280.91;;;10.40;53.38
47742;BME280;33504;52.066;6.096;2023-04-24T09:15:29;100281.04;;;10.78;53.11
47742;BME280;33504;52.066;6.096;2023-04-24T09:17:56;100288.86;;;10.16;54.03
47742;BME280;33504;52.066;6.096;2023-04-24T09:20:23;100298.28;;;11.06;53.26
47742;BME280;33504;52.066;6.096;2023-04-24T09:22:54;100303.02;;;10.49;53.37
47742;BME280;33504;52.066;6.096;2023-04-24T09:25:21;100308.56;;;10.73;53.27
47742;BME280;33504;52.066;6.096;2023-04-24T09:27:48;100310.44;;;10.33;53.08
47742;BME280;33504;52.066;6.096;2023-04-24T09:30:21;100323.74;;;10.47;52.78
47742;BME280;33504;52.066;6.096;2023-04-24T09:32:48;100324.85;;;10.51;52.71
47742;BME280;33504;52.066;6.096;2023-04-24T09:35:15;100335.89;;;10.52;52.96
47742;BME280;33504;52.066;6.096;2023-04-24T09:37:44;100335.27;;;10.85;52.73
47742;BME280;33504;52.066;6.096;2023-04-24T09:40:15;100357.40;;;10.10;52.81
47742;BME280;33504;52.066;6.096;2023-04-24T09:42:45;100356.08;;;9.65;53.83
47742;BME280;33504;52.066;6.096;2023-04-24T09:45:12;100360.50;;;9.99;53.25
47742;BME280;33504;52.066;6.096;2023-04-24T09:47:40;100364.94;;;10.06;53.10
47742;BME280;33504;52.066;6.096;2023-04-24T09:50:10;100365.30;;;10.18;52.89
47742;BME280;33504;52.066;6.096;2023-04-24T09:52:40;100367.14;;;10.54;53.07
47742;BME280;33504;52.066;6.096;2023-04-24T09:55:12;100371.29;;;10.14;53.58
47742;BME280;33504;52.066;6.096;2023-04-24T09:57:47;100384.25;;;10.21;52.89
47742;BME280;33504;52.066;6.096;2023-04-24T10:00:18;100389.89;;;10.35;53.11
47742;BME280;33504;52.066;6.096;2023-04-24T10:02:50;100394.57;;;10.15;53.06
47742;BME280;33504;52.066;6.096;2023-04-24T10:05:17;100390.10;;;10.25;53.04
47742;BME280;33504;52.066;6.096;2023-04-24T10:07:45;100393.79;;;10.28;53.56
47742;BME280;33504;52.066;6.096;2023-04-24T10:10:12;100393.96;;;10.28;52.71
47742;BME280;33504;52.066;6.096;2023-04-24T10:12:39;100397.82;;;10.72;52.50
47742;BME280;33504;52.066;6.096;2023-04-24T10:15:08;100409.30;;;11.18;51.43
47742;BME280;33504;52.066;6.096;2023-04-24T10:17:37;100407.26;;;11.16;50.86
47742;BME280;33504;52.066;6.096;2023-04-24T10:20:05;100412.50;;;11.19;51.25
47742;BME280;33504;52.066;6.096;2023-04-24T10:22:33;100412.07;;;11.30;50.78
47742;BME280;33504;52.066;6.096;2023-04-24T10:25:00;100428.42;;;11.09;50.74
47742;BME280;33504;52.066;6.096;2023-04-24T10:27:31;100426.72;;;11.40;50.61
47742;BME280;33504;52.066;6.096;2023-04-24T10:29:58;100422.78;;;11.44;48.89
47742;BME280;33504;52.066;6.096;2023-04-24T10:32:26;100433.01;;;11.14;49.84
47742;BME280;33504;52.066;6.096;2023-04-24T10:34:54;100432.30;;;11.15;50.20
47742;BME280;33504;52.066;6.096;2023-04-24T10:37:22;100439.08;;;11.39;49.47
47742;BME280;33504;52.066;6.096;2023-04-24T10:39:50;100438.14;;;11.60;48.49
47742;BME280;33504;52.066;6.096;2023-04-24T10:42:17;100445.88;;;11.65;48.76
47742;BME280;33504;52.066;6.096;2023-04-24T10:44:47;100443.65;;;12.30;48.70
47742;BME280;33504;52.066;6.096;2023-04-24T10:47:14;100453.78;;;12.56;47.94
47742;BME280;33504;52.066;6.096;2023-04-24T10:49:41;100448.91;;;12.62;46.53
47742;BME280;33504;52.066;6.096;2023-04-24T10:52:09;100449.91;;;12.76;46.81
47742;BME280;33504;52.066;6.096;2023-04-24T10:54:41;100454.94;;;12.60;47.06
47742;BME280;33504;52.066;6.096;2023-04-24T10:57:37;100465.06;;;13.16;46.32
47742;BME280;33504;52.066;6.096;2023-04-24T11:00:21;100471.40;;;12.89;46.43
47742;BME280;33504;52.066;6.096;2023-04-24T11:02:48;100478.35;;;12.64;45.86
47742;BME280;33504;52.066;6.096;2023-04-24T11:05:16;100482.33;;;11.84;45.27
47742;BME280;33504;52.066;6.096;2023-04-24T11:08:21;100478.91;;;13.23;45.71
47742;BME280;33504;52.066;6.096;2023-04-24T11:10:55;100479.06;;;12.79;45.85
47742;BME280;33504;52.066;6.096;2023-04-24T11:13:23;100486.25;;;12.76;45.45
47742;BME280;33504;52.066;6.096;2023-04-24T11:16:12;100486.32;;;12.92;44.81
47742;BME280;33504;52.066;6.096;2023-04-24T11:18:39;100490.43;;;12.87;43.98
47742;BME280;33504;52.066;6.096;2023-04-24T11:21:10;100491.10;;;12.54;43.91
47742;BME280;33504;52.066;6.096;2023-04-24T11:23:38;100499.59;;;12.76;44.12
47742;BME280;33504;52.066;6.096;2023-04-24T11:26:10;100497.78;;;12.34;44.26
47742;BME280;33504;52.066;6.096;2023-04-24T11:28:44;100494.96;;;12.62;44.16
47742;BME280;33504;52.066;6.096;2023-04-24T11:31:44;100497.93;;;13.55;43.89
47742;BME280;33504;52.066;6.096;2023-04-24T11:34:13;100503.01;;;13.37;44.09
47742;BME280;33504;52.066;6.096;2023-04-24T11:36:40;100505.18;;;12.84;44.38
47742;BME280;33504;52.066;6.096;2023-04-24T11:39:09;100510.76;;;12.90;43.10
47742;BME280;33504;52.066;6.096;2023-04-24T11:41:36;100512.18;;;12.82;41.95
47742;BME280;33504;52.066;6.096;2023-04-24T11:44:06;100525.83;;;12.40;42.84
47742;BME280;33504;52.066;6.096;2023-04-24T11:46:33;100524.36;;;12.28;43.21
47742;BME280;33504;52.066;6.096;2023-04-24T11:49:00;100525.22;;;12.31;43.12
47742;BME280;33504;52.066;6.096;2023-04-24T11:51:27;100533.46;;;12.16;43.17
47742;BME280;33504;52.066;6.096;2023-04-24T11:53:55;100534.38;;;12.27;43.72
47742;BME280;33504;52.066;6.096;2023-04-24T11:56:22;100538.04;;;11.53;43.61
47742;BME280;33504;52.066;6.096;2023-04-24T11:58:52;100555.05;;;11.24;44.89
47742;BME280;33504;52.066;6.096;2023-04-24T12:01:19;100557.67;;;11.12;44.55
47742;BME280;33504;52.066;6.096;2023-04-24T12:03:48;100562.81;;;11.51;45.22
47742;BME280;33504;52.066;6.096;2023-04-24T12:06:15;100568.27;;;11.61;45.38
47742;BME280;33504;52.066;6.096;2023-04-24T12:08:42;100575.35;;;11.23;45.89
47742;BME280;33504;52.066;6.096;2023-04-24T12:11:15;100574.77;;;11.36;45.85
47742;BME280;33504;52.066;6.096;2023-04-24T12:13:42;100579.44;;;11.65;45.53
47742;BME280;33504;52.066;6.096;2023-04-24T12:16:09;100578.69;;;11.45;45.99
47742;BME280;33504;52.066;6.096;2023-04-24T12:18:41;100582.69;;;11.73;46.40
47742;BME280;33504;52.066;6.096;2023-04-24T12:21:17;100584.61;;;11.70;46.66
47742;BME280;33504;52.066;6.096;2023-04-24T12:23:44;100582.54;;;11.63;46.58
47742;BME280;33504;52.066;6.096;2023-04-24T12:26:12;100582.79;;;11.85;46.65
47742;BME280;33504;52.066;6.096;2023-04-24T12:28:39;100585.75;;;12.08;46.81
47742;BME280;33504;52.066;6.096;2023-04-24T12:31:07;100582.76;;;12.12;46.32
47742;BME280;33504;52.066;6.096;2023-04-24T12:33:35;100582.74;;;12.72;46.03
47742;BME280;33504;52.066;6.096;2023-04-24T12:36:03;100580.94;;;13.10;44.48
47742;BME280;33504;52.066;6.096;2023-04-24T12:38:30;100584.67;;;13.10;43.41
47742;BME280;33504;52.066;6.096;2023-04-24T12:41:06;100595.74;;;12.71;43.86
47742;BME280;33504;52.066;6.096;2023-04-24T12:43:33;100595.35;;;12.85;43.31
47742;BME280;33504;52.066;6.096;2023-04-24T12:46:01;100602.44;;;12.21;43.86
47742;BME280;33504;52.066;6.096;2023-04-24T12:48:28;100603.29;;;12.14;44.28
47742;BME280;33504;52.066;6.096;2023-04-24T12:50:57;100604.55;;;12.75;44.16
47742;BME280;33504;52.066;6.096;2023-04-24T12:53:25;100601.82;;;13.11;43.58
47742;BME280;33504;52.066;6.096;2023-04-24T12:55:52;100601.02;;;13.11;42.59
47742;BME280;33504;52.066;6.096;2023-04-24T12:58:19;100605.16;;;13.21;42.90